Time;durP1;ratioP1;P1;durP2;ratioP2;P2;SDS_P1;SDS_P2;PMS_P1;PMS_P2;Temp;Humidity;BMP_temperature;BMP_pressure;BME280_temperature;BME280_humidity;BME280_pressure;Samples;Min_cycle;Max_cycle;Signal;HPM_P1;HPM_P2
2021/08/08 00:00:14;;;;;;;2.40;1.57;;;14.60;99.90;;;;;;5050698;28;20175;-79
2021/08/08 00:02:40;;;;;;;1.37;1.20;;;14.70;99.90;;;;;;5050744;28;20703;-78
2021/08/08 00:05:11;;;;;;;2.30;1.20;;;14.60;99.90;;;;;;5051048;28;20217;-78
2021/08/08 00:07:36;;;;;;;1.97;1.60;;;14.50;99.90;;;;;;5051126;28;20190;-79
2021/08/08 00:10:08;;;;;;;2.37;1.30;;;14.50;99.90;;;;;;5052707;28;20175;-78
2021/08/08 00:12:34;;;;;;;2.47;2.10;;;14.50;99.90;;;;;;5050621;28;20566;-79
2021/08/08 00:15:00;;;;;;;2.67;2.20;;;14.50;99.90;;;;;;5050307;28;20178;-79
2021/08/08 00:17:26;;;;;;;2.30;2.00;;;14.60;99.90;;;;;;5051292;28;20260;-79
2021/08/08 00:19:53;;;;;;;2.23;1.90;;;14.50;99.90;;;;;;5050636;28;20183;-78
2021/08/08 00:22:19;;;;;;;2.10;1.90;;;14.40;99.90;;;;;;5051206;28;20178;-79
2021/08/08 00:24:44;;;;;;;2.00;1.90;;;14.40;99.90;;;;;;5051475;28;20236;-78
2021/08/08 00:27:10;;;;;;;2.13;1.93;;;14.50;99.90;;;;;;5051734;28;20254;-79
2021/08/08 00:29:36;;;;;;;1.90;1.80;;;14.60;99.90;;;;;;5052177;28;20226;-79
2021/08/08 00:32:02;;;;;;;2.57;1.80;;;14.50;99.90;;;;;;5053033;28;20183;-79
2021/08/08 00:34:27;;;;;;;3.50;1.87;;;14.40;99.90;;;;;;5053212;28;20189;-78
2021/08/08 00:36:53;;;;;;;2.77;1.83;;;14.50;99.90;;;;;;5052667;28;20221;-79
2021/08/08 00:39:20;;;;;;;1.77;1.67;;;14.60;99.90;;;;;;5053042;28;20256;-79
2021/08/08 00:41:46;;;;;;;2.43;1.50;;;14.50;99.90;;;;;;5051471;28;20198;-78
2021/08/08 00:44:12;;;;;;;2.20;1.53;;;14.60;99.90;;;;;;5052705;28;20186;-78
2021/08/08 00:46:38;;;;;;;2.10;1.70;;;14.50;99.90;;;;;;5053297;28;20202;-79
2021/08/08 00:49:03;;;;;;;2.83;2.07;;;14.40;99.90;;;;;;5053510;28;20657;-79
2021/08/08 00:51:32;;;;;;;3.20;1.90;;;14.40;99.90;;;;;;5053193;28;20202;-79
2021/08/08 00:53:58;;;;;;;3.70;1.70;;;14.30;99.90;;;;;;5052344;28;20170;-79
2021/08/08 00:56:24;;;;;;;1.83;1.73;;;14.30;99.90;;;;;;5052958;28;20692;-78
2021/08/08 00:58:50;;;;;;;2.57;2.30;;;14.40;99.90;;;;;;5051899;28;20174;-79
2021/08/08 01:01:18;;;;;;;3.93;2.23;;;14.50;99.90;;;;;;5052391;28;20178;-79
2021/08/08 01:03:44;;;;;;;2.00;1.90;;;14.30;99.90;;;;;;5050971;28;20182;-79
2021/08/08 01:06:17;;;;;;;3.03;2.30;;;14.20;99.90;;;;;;5051750;28;20213;-79
2021/08/08 01:08:51;;;;;;;2.57;1.67;;;14.20;99.90;;;;;;5052408;28;20171;-79
2021/08/08 01:11:19;;;;;;;4.50;2.27;;;14.20;99.90;;;;;;5052536;28;20167;-78
2021/08/08 01:13:47;;;;;;;3.27;1.90;;;14.10;99.90;;;;;;5052798;28;20170;-78
2021/08/08 01:16:14;;;;;;;1.80;1.70;;;14.20;99.90;;;;;;5052174;28;20198;-78
2021/08/08 01:18:41;;;;;;;1.97;1.87;;;14.30;99.90;;;;;;5052534;28;20180;-79
2021/08/08 01:21:08;;;;;;;2.73;1.43;;;14.30;99.90;;;;;;5052149;28;20179;-78
2021/08/08 01:23:35;;;;;;;1.63;1.53;;;14.40;99.90;;;;;;5052287;28;20181;-79
2021/08/08 01:26:01;;;;;;;4.03;2.23;;;14.40;99.90;;;;;;5052767;28;20643;-79
2021/08/08 01:28:27;;;;;;;2.40;2.20;;;14.20;99.90;;;;;;5051957;28;20175;-78
2021/08/08 01:30:53;;;;;;;2.83;2.00;;;14.20;99.90;;;;;;5052523;28;20178;-79
2021/08/08 01:33:18;;;;;;;2.73;2.53;;;14.10;99.90;;;;;;5052218;28;20234;-79
2021/08/08 01:38:20;;;;;;;2.17;2.00;;;14.20;99.90;;;;;;5018010;28;20210;-80
2021/08/08 01:40:57;;;;;;;2.20;2.10;;;14.20;99.90;;;;;;5014701;28;20179;-80
2021/08/08 01:43:28;;;;;;;2.10;1.90;;;14.30;99.90;;;;;;5026831;28;20186;-80
2021/08/08 01:46:03;;;;;;;1.80;1.70;;;14.30;99.90;;;;;;5022569;28;20257;-80
2021/08/08 01:48:30;;;;;;;2.43;2.00;;;14.30;99.90;;;;;;5020208;28;20171;-79
2021/08/08 01:50:57;;;;;;;1.93;1.83;;;14.30;99.90;;;;;;5020297;28;20178;-79
2021/08/08 01:53:26;;;;;;;3.83;1.53;;;14.30;99.90;;;;;;5001724;28;20187;-80
2021/08/08 01:55:55;;;;;;;2.60;1.87;;;14.30;99.90;;;;;;5019431;28;20553;-80
2021/08/08 01:58:20;;;;;;;1.87;1.77;;;14.30;99.90;;;;;;5019087;28;20548;-80
2021/08/08 02:00:50;;;;;;;2.73;2.00;;;14.20;99.90;;;;;;5002280;28;20179;-80
2021/08/08 02:03:16;;;;;;;2.20;2.10;;;14.20;99.90;;;;;;5023403;28;20193;-79
2021/08/08 02:05:41;;;;;;;2.10;2.00;;;14.10;99.90;;;;;;5018231;28;20214;-80
2021/08/08 02:08:07;;;;;;;2.50;2.30;;;14.00;99.90;;;;;;5027599;28;20198;-80
2021/08/08 02:10:33;;;;;;;2.97;2.57;;;14.00;99.90;;;;;;5025690;28;20183;-81
2021/08/08 02:12:58;;;;;;;3.27;1.90;;;13.90;99.90;;;;;;5012188;28;20178;-79
2021/08/08 02:15:24;;;;;;;3.27;1.97;;;13.90;99.90;;;;;;4983288;28;20554;-81
2021/08/08 02:17:50;;;;;;;3.43;2.03;;;13.90;99.90;;;;;;5014942;28;20198;-81
2021/08/08 02:20:20;;;;;;;2.50;2.30;;;13.90;99.90;;;;;;5000914;28;20182;-82
2021/08/08 02:22:46;;;;;;;2.00;1.90;;;13.90;99.90;;;;;;5002738;28;20183;-80
2021/08/08 02:25:13;;;;;;;3.03;1.93;;;13.80;99.90;;;;;;5019563;28;20564;-80
2021/08/08 02:27:40;;;;;;;3.30;2.10;;;13.80;99.90;;;;;;5000548;28;20221;-82
2021/08/08 02:30:08;;;;;;;1.77;1.67;;;13.80;99.90;;;;;;5019616;28;20175;-81
2021/08/08 02:32:34;;;;;;;1.93;1.83;;;13.80;99.90;;;;;;5019588;28;20170;-80
2021/08/08 02:35:00;;;;;;;3.00;1.90;;;13.80;99.90;;;;;;5024762;28;20185;-81
2021/08/08 02:37:26;;;;;;;2.20;2.00;;;13.80;99.90;;;;;;5027819;28;20215;-79
2021/08/08 02:39:51;;;;;;;3.03;2.30;;;13.80;99.90;;;;;;5019627;28;20546;-81
2021/08/08 02:42:20;;;;;;;4.07;2.60;;;13.80;99.90;;;;;;5018443;28;20198;-80
2021/08/08 02:44:46;;;;;;;5.03;1.90;;;13.80;99.90;;;;;;5019471;28;20195;-82
2021/08/08 02:47:14;;;;;;;2.80;2.20;;;13.80;99.90;;;;;;5018386;28;20206;-81
2021/08/08 02:49:40;;;;;;;4.17;2.30;;;13.80;99.90;;;;;;5018896;28;20182;-81
2021/08/08 02:52:06;;;;;;;2.17;1.60;;;13.80;99.90;;;;;;5000540;28;20172;-79
2021/08/08 02:54:32;;;;;;;2.97;1.90;;;13.80;99.90;;;;;;5017810;28;20225;-80
2021/08/08 02:56:58;;;;;;;4.10;1.77;;;13.80;99.90;;;;;;5001088;28;20666;-81
2021/08/08 02:59:23;;;;;;;3.77;2.00;;;13.90;99.90;;;;;;5018902;28;20182;-79
2021/08/08 03:01:49;;;;;;;2.70;1.93;;;13.90;99.90;;;;;;5001940;28;20175;-81
2021/08/08 03:04:15;;;;;;;3.27;1.60;;;13.90;99.90;;;;;;5006302;28;20253;-79
2021/08/08 03:06:45;;;;;;;1.60;1.50;;;13.90;99.90;;;;;;5030987;28;20206;-80
2021/08/08 03:09:11;;;;;;;1.80;1.37;;;13.90;99.90;;;;;;5022494;28;20167;-79
2021/08/08 03:11:37;;;;;;;2.23;1.60;;;14.00;99.90;;;;;;5004771;28;20179;-80
2021/08/08 03:14:03;;;;;;;2.43;1.43;;;14.10;99.90;;;;;;4989623;28;20532;-81
2021/08/08 03:16:29;;;;;;;2.07;1.50;;;14.10;99.90;;;;;;5005506;28;20221;-80
2021/08/08 03:18:54;;;;;;;4.63;1.80;;;14.10;99.90;;;;;;5005777;28;20183;-80
2021/08/08 03:21:20;;;;;;;4.27;1.73;;;14.20;99.90;;;;;;5019077;28;20646;-80
2021/08/08 03:23:45;;;;;;;4.23;1.90;;;14.20;99.90;;;;;;5024728;28;20201;-79
2021/08/08 03:26:11;;;;;;;4.20;1.50;;;14.20;99.90;;;;;;5019143;28;20645;-80
2021/08/08 03:28:37;;;;;;;2.70;1.57;;;14.20;99.90;;;;;;5023705;28;20688;-80
2021/08/08 03:31:02;;;;;;;4.17;2.20;;;14.10;99.90;;;;;;5035255;28;20174;-79
2021/08/08 03:33:28;;;;;;;2.07;1.93;;;14.00;99.90;;;;;;5022220;28;20172;-79
2021/08/08 03:35:56;;;;;;;2.53;1.67;;;14.00;99.90;;;;;;5004658;28;20187;-80
2021/08/08 03:38:22;;;;;;;4.80;1.90;;;14.10;99.90;;;;;;5036757;28;20227;-80
2021/08/08 03:40:48;;;;;;;2.00;1.80;;;14.00;99.90;;;;;;5004627;28;20661;-79
2021/08/08 03:43:13;;;;;;;1.60;1.50;;;14.10;99.90;;;;;;5021888;28;20182;-81
2021/08/08 03:45:39;;;;;;;3.77;1.63;;;14.10;99.90;;;;;;5032010;28;20258;-81
2021/08/08 03:48:05;;;;;;;2.97;1.50;;;14.10;99.90;;;;;;5024422;28;20666;-81
2021/08/08 03:50:30;;;;;;;1.73;1.63;;;14.10;99.90;;;;;;5022981;28;20180;-81
2021/08/08 03:52:56;;;;;;;2.60;1.97;;;14.10;99.90;;;;;;5023706;28;20222;-81
2021/08/08 03:55:22;;;;;;;2.47;1.63;;;14.10;99.90;;;;;;5023007;28;20186;-81
2021/08/08 03:57:47;;;;;;;2.20;1.70;;;14.20;99.90;;;;;;5022034;28;20199;-81
2021/08/08 04:00:13;;;;;;;4.33;1.60;;;14.20;99.90;;;;;;5020028;28;20179;-81
2021/08/08 04:02:39;;;;;;;2.23;1.40;;;14.20;99.90;;;;;;5023371;28;20247;-79
2021/08/08 04:05:08;;;;;;;2.07;1.97;;;14.30;99.90;;;;;;5021212;28;20207;-82
2021/08/08 04:07:34;;;;;;;2.37;2.17;;;14.30;99.90;;;;;;5010471;28;20201;-82
2021/08/08 04:10:00;;;;;;;3.17;2.33;;;14.30;99.90;;;;;;5036241;28;20201;-81
2021/08/08 04:12:25;;;;;;;2.60;2.37;;;14.30;99.90;;;;;;5006902;28;20268;-81
2021/08/08 04:14:51;;;;;;;2.50;2.30;;;14.40;99.90;;;;;;5004270;28;20183;-82
2021/08/08 04:17:16;;;;;;;4.57;2.40;;;14.30;99.90;;;;;;5016476;28;20680;-80
2021/08/08 04:19:42;;;;;;;2.30;2.10;;;14.30;99.90;;;;;;5022449;28;20254;-81
2021/08/08 04:22:08;;;;;;;6.67;2.53;;;14.30;99.90;;;;;;5016865;28;20179;-81
2021/08/08 04:24:33;;;;;;;2.93;2.40;;;14.30;99.90;;;;;;5018760;28;20203;-82
2021/08/08 04:26:59;;;;;;;2.90;2.50;;;14.40;99.90;;;;;;5013428;28;20606;-81
2021/08/08 04:29:24;;;;;;;2.47;2.37;;;14.40;99.90;;;;;;5025658;28;20262;-81
2021/08/08 04:31:50;;;;;;;2.47;2.30;;;14.40;99.90;;;;;;5021531;28;20708;-81
2021/08/08 04:34:16;;;;;;;2.90;2.30;;;14.40;99.90;;;;;;5034381;28;20234;-80
2021/08/08 04:36:42;;;;;;;4.63;2.83;;;14.60;99.90;;;;;;5003751;28;20206;-81
2021/08/08 04:39:10;;;;;;;2.40;2.20;;;14.50;99.90;;;;;;5003340;28;20194;-81
2021/08/08 04:41:36;;;;;;;2.73;2.30;;;14.50;99.90;;;;;;5020565;28;20175;-81
2021/08/08 04:44:02;;;;;;;3.13;2.80;;;14.50;99.90;;;;;;5021268;28;20194;-80
2021/08/08 04:46:27;;;;;;;3.20;2.90;;;14.50;99.90;;;;;;5004841;28;20206;-80
2021/08/08 04:48:53;;;;;;;4.30;2.63;;;14.50;99.90;;;;;;5032456;28;20229;-82
2021/08/08 04:51:21;;;;;;;4.10;2.60;;;14.60;99.90;;;;;;5002377;28;20190;-81
2021/08/08 04:53:47;;;;;;;7.17;2.60;;;14.60;99.90;;;;;;5007086;28;20179;-80
2021/08/08 04:56:13;;;;;;;3.33;2.30;;;14.50;99.90;;;;;;5032664;28;20220;-81
2021/08/08 04:58:38;;;;;;;2.87;2.67;;;14.50;99.90;;;;;;5020514;28;20186;-81
2021/08/08 05:01:04;;;;;;;2.63;2.37;;;14.50;99.90;;;;;;5002310;28;20629;-81
2021/08/08 05:03:30;;;;;;;3.60;1.70;;;14.60;99.90;;;;;;5006816;28;20180;-81
2021/08/08 05:05:55;;;;;;;2.87;2.07;;;14.50;99.90;;;;;;5020024;28;20564;-80
2021/08/08 05:08:21;;;;;;;3.20;1.60;;;14.50;99.90;;;;;;5020257;28;20230;-80
2021/08/08 05:10:46;;;;;;;2.23;1.70;;;14.60;99.90;;;;;;5004407;28;20179;-81
2021/08/08 05:13:12;;;;;;;3.43;1.63;;;14.60;99.90;;;;;;5031256;28;20546;-81
2021/08/08 05:15:38;;;;;;;1.97;1.77;;;14.60;99.90;;;;;;5020178;28;20223;-81
2021/08/08 05:18:03;;;;;;;2.70;1.57;;;14.50;99.90;;;;;;5019880;28;20213;-80
2021/08/08 05:20:29;;;;;;;1.93;1.63;;;14.50;99.90;;;;;;5004801;28;20176;-80
2021/08/08 05:22:57;;;;;;;1.77;1.57;;;14.60;99.90;;;;;;5019834;28;20178;-80
2021/08/08 05:25:23;;;;;;;1.67;1.43;;;14.60;99.90;;;;;;5020291;28;20686;-81
2021/08/08 05:27:51;;;;;;;2.80;1.43;;;14.60;99.90;;;;;;5033106;28;20226;-80
2021/08/08 05:30:17;;;;;;;1.97;1.30;;;14.70;99.90;;;;;;5020090;28;20175;-79
2021/08/08 05:32:42;;;;;;;2.70;1.20;;;14.70;99.90;;;;;;5018609;28;20260;-79
2021/08/08 05:35:09;;;;;;;2.40;1.33;;;14.70;99.90;;;;;;5008945;28;20182;-79
2021/08/08 05:37:34;;;;;;;1.77;1.30;;;14.70;99.90;;;;;;5011526;28;20275;-78
2021/08/08 05:40:05;;;;;;;1.40;1.30;;;14.70;99.90;;;;;;5028047;28;20190;-79
2021/08/08 05:42:32;;;;;;;2.07;1.57;;;14.70;99.90;;;;;;5033462;28;20188;-79
2021/08/08 05:44:58;;;;;;;3.60;1.50;;;14.80;99.90;;;;;;5022448;28;20195;-80
2021/08/08 05:47:23;;;;;;;3.23;1.40;;;14.80;99.90;;;;;;5003729;28;20201;-81
2021/08/08 05:49:49;;;;;;;2.53;1.40;;;14.80;99.90;;;;;;5021365;28;20236;-81
2021/08/08 05:52:14;;;;;;;5.27;1.47;;;14.80;99.90;;;;;;5020877;28;20249;-80
2021/08/08 05:54:40;;;;;;;1.97;1.30;;;15.00;99.90;;;;;;5020268;28;20164;-82
2021/08/08 05:57:06;;;;;;;2.47;1.30;;;15.00;99.90;;;;;;5034091;28;20537;-80
2021/08/08 05:59:31;;;;;;;1.53;1.20;;;15.20;99.90;;;;;;5010760;28;20622;-82
2021/08/08 06:01:57;;;;;;;5.43;1.33;;;15.20;99.90;;;;;;5032940;28;20167;-80
2021/08/08 06:04:23;;;;;;;3.30;1.20;;;15.30;99.90;;;;;;5003341;28;20175;-82
2021/08/08 06:06:50;;;;;;;2.03;1.43;;;15.40;99.90;;;;;;5002773;28;20353;-81
2021/08/08 06:09:19;;;;;;;1.00;0.90;;;15.40;99.90;;;;;;5020607;28;20180;-80
2021/08/08 06:11:44;;;;;;;2.70;1.17;;;15.40;99.90;;;;;;5020186;28;20659;-79
2021/08/08 06:14:10;;;;;;;3.80;1.40;;;15.50;99.90;;;;;;5020780;28;20175;-81
2021/08/08 06:16:36;;;;;;;1.27;1.10;;;15.40;99.90;;;;;;5028133;28;20545;-82
2021/08/08 06:19:01;;;;;;;1.90;1.37;;;15.30;99.90;;;;;;5011354;28;20611;-81
2021/08/08 06:21:27;;;;;;;2.60;1.30;;;15.40;99.90;;;;;;4989518;28;20175;-81
2021/08/08 06:23:53;;;;;;;2.07;1.20;;;15.40;99.90;;;;;;5003077;28;20214;-80
2021/08/08 06:26:18;;;;;;;1.40;1.10;;;15.50;99.90;;;;;;5002806;28;20696;-82
2021/08/08 06:28:45;;;;;;;1.43;1.20;;;15.50;99.90;;;;;;5021212;28;20171;-81
2021/08/08 06:31:10;;;;;;;2.20;1.17;;;15.60;99.90;;;;;;5020509;28;20182;-81
2021/08/08 06:33:36;;;;;;;3.47;1.23;;;15.60;99.90;;;;;;5002980;28;20174;-81
2021/08/08 06:36:02;;;;;;;1.90;1.20;;;15.70;99.90;;;;;;5020269;28;20206;-82
2021/08/08 06:38:27;;;;;;;2.03;1.10;;;15.70;99.90;;;;;;5004224;28;20200;-81
2021/08/08 06:40:53;;;;;;;3.90;1.43;;;15.70;99.90;;;;;;5036763;28;20559;-80
2021/08/08 06:43:19;;;;;;;1.30;1.20;;;15.80;99.90;;;;;;5025661;28;20240;-81
2021/08/08 06:45:44;;;;;;;1.93;1.20;;;15.80;99.90;;;;;;5024370;28;20201;-81
2021/08/08 06:48:10;;;;;;;2.17;1.27;;;15.80;99.90;;;;;;5008730;28;20198;-81
2021/08/08 06:50:36;;;;;;;2.60;1.20;;;15.80;99.90;;;;;;5027578;28;20180;-81
2021/08/08 06:53:01;;;;;;;3.43;1.00;;;15.90;99.90;;;;;;5032349;28;20710;-81
2021/08/08 06:55:27;;;;;;;1.90;1.13;;;15.90;99.90;;;;;;5012028;28;20284;-81
2021/08/08 06:57:53;;;;;;;2.37;1.70;;;15.80;99.90;;;;;;5032194;28;20206;-80
2021/08/08 07:00:19;;;;;;;2.67;1.33;;;15.90;99.90;;;;;;5023924;28;20660;-80
2021/08/08 07:02:50;;;;;;;1.37;1.13;;;15.90;99.90;;;;;;5005877;28;20677;-80
2021/08/08 07:05:16;;;;;;;2.70;0.90;;;16.00;99.90;;;;;;5018979;28;20199;-80
2021/08/08 07:07:42;;;;;;;3.27;1.40;;;16.10;99.90;;;;;;5008276;28;20241;-80
2021/08/08 07:10:08;;;;;;;3.30;1.00;;;16.10;99.90;;;;;;5023737;28;20177;-80
2021/08/08 07:12:33;;;;;;;2.70;1.07;;;16.20;99.90;;;;;;5038519;28;20242;-80
2021/08/08 07:14:59;;;;;;;2.57;0.80;;;16.20;99.90;;;;;;5024243;28;20652;-80
2021/08/08 07:17:25;;;;;;;2.87;0.90;;;16.40;99.90;;;;;;5024073;28;20562;-81
2021/08/08 07:19:50;;;;;;;1.23;0.80;;;16.40;99.90;;;;;;5024054;28;20260;-80
2021/08/08 07:22:16;;;;;;;2.00;0.87;;;16.50;99.90;;;;;;5034087;28;20178;-80
2021/08/08 07:24:44;;;;;;;2.73;0.73;;;16.50;99.90;;;;;;5034652;28;20734;-80
2021/08/08 07:27:11;;;;;;;3.50;0.93;;;16.60;99.90;;;;;;5014802;28;20222;-80
2021/08/08 07:29:37;;;;;;;4.60;0.63;;;16.50;99.90;;;;;;5027816;28;20163;-79
2021/08/08 07:32:03;;;;;;;4.07;0.93;;;16.40;99.90;;;;;;5034600;28;20202;-80
2021/08/08 07:34:28;;;;;;;3.07;0.60;;;16.50;99.90;;;;;;5023992;28;20185;-81
2021/08/08 07:36:56;;;;;;;4.20;1.30;;;16.50;99.90;;;;;;5045991;22;20604;-79
2021/08/08 07:39:21;;;;;;;1.87;1.40;;;16.60;99.90;;;;;;5037476;28;20656;-76
2021/08/08 07:41:47;;;;;;;2.77;0.90;;;16.60;99.90;;;;;;5045553;28;20245;-78
2021/08/08 07:44:12;;;;;;;3.63;0.80;;;16.60;99.90;;;;;;5049497;28;20185;-78
2021/08/08 07:46:38;;;;;;;3.60;1.00;;;16.60;99.90;;;;;;5047926;28;20206;-77
2021/08/08 07:49:04;;;;;;;2.30;1.13;;;16.50;99.90;;;;;;5047924;28;20167;-78
2021/08/08 07:51:29;;;;;;;2.73;0.77;;;16.40;99.90;;;;;;5047532;28;20184;-78
2021/08/08 07:53:55;;;;;;;2.83;0.70;;;16.50;99.90;;;;;;5049496;28;20187;-78
2021/08/08 07:56:20;;;;;;;2.80;1.00;;;16.50;99.90;;;;;;5050292;28;20187;-77
2021/08/08 07:58:46;;;;;;;3.90;1.17;;;16.60;99.90;;;;;;5051345;28;20195;-78
2021/08/08 08:01:12;;;;;;;2.23;0.83;;;16.60;99.90;;;;;;5050693;28;20268;-78
2021/08/08 08:03:37;;;;;;;1.47;0.73;;;16.60;99.90;;;;;;5049193;28;20185;-78
2021/08/08 08:06:03;;;;;;;3.93;0.83;;;16.60;99.90;;;;;;5047895;28;20198;-78
2021/08/08 08:08:29;;;;;;;4.00;0.90;;;16.60;99.90;;;;;;5047216;28;20198;-77
2021/08/08 08:10:56;;;;;;;3.63;0.80;;;16.60;99.90;;;;;;5048429;28;20265;-77
2021/08/08 08:13:22;;;;;;;2.07;0.93;;;16.70;99.90;;;;;;5049759;28;20254;-78
2021/08/08 08:15:47;;;;;;;4.53;1.00;;;16.70;99.90;;;;;;5047923;28;20256;-78
2021/08/08 08:18:13;;;;;;;6.07;0.93;;;16.80;99.90;;;;;;5044508;28;20221;-78
2021/08/08 08:20:39;;;;;;;1.97;0.60;;;16.70;99.90;;;;;;5044732;28;20209;-78
2021/08/08 08:23:05;;;;;;;2.63;0.90;;;16.70;99.90;;;;;;5043980;28;20181;-77
2021/08/08 08:25:31;;;;;;;8.30;1.07;;;16.70;99.90;;;;;;5044341;28;20214;-78
2021/08/08 08:27:56;;;;;;;3.20;0.80;;;16.80;99.90;;;;;;5046386;28;20273;-77
2021/08/08 08:30:22;;;;;;;2.03;0.87;;;17.00;99.90;;;;;;5045657;28;20182;-77
2021/08/08 08:32:48;;;;;;;3.03;1.03;;;17.00;99.90;;;;;;5043666;28;20182;-78
2021/08/08 08:35:13;;;;;;;1.47;0.80;;;16.90;99.90;;;;;;5045167;28;20641;-77
2021/08/08 08:37:39;;;;;;;3.77;1.10;;;16.90;99.90;;;;;;5044940;28;20240;-78
2021/08/08 08:40:06;;;;;;;2.27;1.20;;;17.00;99.90;;;;;;5044101;28;20176;-77
2021/08/08 08:42:34;;;;;;;2.30;0.90;;;17.00;99.90;;;;;;5043739;28;20189;-78
2021/08/08 08:45:00;;;;;;;4.50;1.00;;;17.00;99.90;;;;;;5044519;28;20200;-78
2021/08/08 08:47:28;;;;;;;5.73;1.13;;;17.00;99.90;;;;;;5045063;28;20209;-78
2021/08/08 08:50:05;;;;;;;2.10;0.97;;;17.00;99.90;;;;;;5045471;28;20204;-78
2021/08/08 08:52:31;;;;;;;2.70;0.80;;;17.20;99.90;;;;;;5048724;28;20180;-78
2021/08/08 08:54:57;;;;;;;3.00;1.00;;;17.30;99.90;;;;;;5048978;28;20184;-78
2021/08/08 08:57:23;;;;;;;2.10;0.90;;;17.50;99.90;;;;;;5048627;28;20206;-78
2021/08/08 08:59:50;;;;;;;2.27;0.70;;;17.50;99.90;;;;;;5048742;28;20190;-78
2021/08/08 09:02:16;;;;;;;2.47;0.70;;;17.50;99.90;;;;;;5046400;28;20183;-78
2021/08/08 09:04:41;;;;;;;1.50;0.60;;;17.50;99.90;;;;;;5048662;28;20182;-78
2021/08/08 09:07:08;;;;;;;3.67;1.00;;;17.40;99.90;;;;;;5048753;28;20229;-77
2021/08/08 09:09:36;;;;;;;1.80;0.63;;;17.50;99.90;;;;;;5047052;28;20176;-77
2021/08/08 09:12:02;;;;;;;4.07;1.00;;;17.40;99.90;;;;;;5048188;28;20182;-78
2021/08/08 09:14:27;;;;;;;2.77;1.00;;;17.30;99.90;;;;;;5047867;28;20660;-78
2021/08/08 09:16:55;;;;;;;2.50;0.90;;;17.30;99.90;;;;;;5048551;28;20200;-77
2021/08/08 09:19:26;;;;;;;6.43;1.20;;;17.30;99.90;;;;;;5031398;28;20206;-78
2021/08/08 09:21:53;;;;;;;3.23;1.03;;;17.30;99.90;;;;;;5048586;28;20173;-79
2021/08/08 09:24:37;;;;;;;2.40;0.90;;;17.30;99.90;;;;;;5047783;28;20193;-77
2021/08/08 09:27:11;;;;;;;4.10;1.13;;;17.40;99.90;;;;;;5049765;28;20254;-78
2021/08/08 09:29:43;;;;;;;3.17;0.73;;;17.50;99.90;;;;;;5047738;28;20198;-77
2021/08/08 09:32:10;;;;;;;2.50;1.10;;;17.50;99.90;;;;;;5049579;28;20566;-78
2021/08/08 09:34:40;;;;;;;2.17;1.00;;;17.70;99.90;;;;;;5048262;28;20179;-78
2021/08/08 09:37:16;;;;;;;3.70;0.93;;;17.90;99.90;;;;;;5047626;28;20206;-78
2021/08/08 09:39:44;;;;;;;3.80;0.80;;;18.10;99.90;;;;;;5048619;28;20173;-78
2021/08/08 09:42:17;;;;;;;2.53;0.90;;;18.20;99.90;;;;;;5049233;28;20174;-79
2021/08/08 09:44:56;;;;;;;1.97;1.10;;;18.40;99.90;;;;;;5048980;28;20180;-78
2021/08/08 09:47:34;;;;;;;2.43;1.00;;;18.30;99.90;;;;;;5049792;28;20226;-78
2021/08/08 09:50:02;;;;;;;4.27;0.90;;;18.20;99.90;;;;;;5048825;28;20184;-78
2021/08/08 09:52:27;;;;;;;3.13;1.00;;;18.20;99.90;;;;;;5049140;28;20242;-78
2021/08/08 09:54:53;;;;;;;2.70;0.90;;;18.20;99.90;;;;;;5047328;28;20178;-78
2021/08/08 09:57:19;;;;;;;3.47;1.00;;;18.30;99.90;;;;;;5046913;28;20215;-78
2021/08/08 09:59:49;;;;;;;2.27;0.97;;;18.40;99.90;;;;;;5048791;28;20182;-79
2021/08/08 10:02:19;;;;;;;4.40;0.97;;;18.50;99.90;;;;;;5048754;28;20166;-79
2021/08/08 10:04:45;;;;;;;3.67;1.10;;;18.40;99.90;;;;;;5048171;28;20188;-79
2021/08/08 10:07:10;;;;;;;2.67;1.10;;;18.50;99.90;;;;;;5046693;28;20200;-78
2021/08/08 10:09:37;;;;;;;3.93;0.80;;;18.60;99.90;;;;;;5047496;28;20176;-79
2021/08/08 10:12:37;;;;;;;2.00;0.97;;;18.70;99.90;;;;;;5045314;28;20178;-79
2021/08/08 10:15:03;;;;;;;3.17;0.90;;;18.80;99.90;;;;;;5020072;28;20202;-79
2021/08/08 10:17:31;;;;;;;2.50;0.87;;;19.00;99.90;;;;;;5045476;28;20210;-79
2021/08/08 10:19:58;;;;;;;2.93;0.90;;;19.10;99.90;;;;;;5046248;28;20201;-78
2021/08/08 10:22:24;;;;;;;2.17;0.90;;;19.30;99.90;;;;;;5046918;28;20189;-78
2021/08/08 10:24:58;;;;;;;3.60;1.00;;;19.30;99.90;;;;;;5047335;28;20210;-79
2021/08/08 10:27:25;;;;;;;2.23;0.70;;;19.40;99.90;;;;;;5045754;28;20205;-79
2021/08/08 10:29:52;;;;;;;3.20;0.90;;;19.50;99.90;;;;;;5045830;28;20644;-78
2021/08/08 10:32:18;;;;;;;2.37;1.00;;;19.50;99.90;;;;;;5045863;28;20273;-79
2021/08/08 10:34:44;;;;;;;3.40;0.80;;;19.50;99.90;;;;;;5043323;28;20170;-78
2021/08/08 10:37:14;;;;;;;4.83;1.30;;;19.40;99.90;;;;;;5043713;28;20621;-78
2021/08/08 10:39:46;;;;;;;2.40;0.80;;;19.20;99.90;;;;;;5044347;28;20211;-78
2021/08/08 10:42:12;;;;;;;3.63;0.97;;;19.20;99.90;;;;;;5044972;28;20185;-78
2021/08/08 10:44:52;;;;;;;5.97;1.33;;;19.40;99.90;;;;;;5044143;28;20192;-78
2021/08/08 10:47:33;;;;;;;1.90;1.00;;;19.50;99.90;;;;;;5045286;28;20261;-78
2021/08/08 10:50:12;;;;;;;1.73;0.87;;;19.70;99.90;;;;;;5043222;28;20186;-79
2021/08/08 10:52:42;;;;;;;2.83;0.80;;;19.80;99.90;;;;;;5044824;28;20625;-79
2021/08/08 10:55:21;;;;;;;1.47;0.97;;;19.80;99.90;;;;;;5044616;28;20231;-78
2021/08/08 10:57:48;;;;;;;2.10;1.10;;;19.80;99.90;;;;;;5044206;28;20213;-78
2021/08/08 11:00:15;;;;;;;2.37;1.17;;;19.80;99.90;;;;;;5043886;28;20198;-78
2021/08/08 11:02:44;;;;;;;3.73;0.90;;;19.70;99.90;;;;;;5044047;28;20206;-78
2021/08/08 11:05:16;;;;;;;3.20;1.60;;;19.70;99.90;;;;;;5042777;28;20205;-78
2021/08/08 11:07:44;;;;;;;1.87;1.30;;;19.80;99.90;;;;;;5043462;28;20329;-78
2021/08/08 11:10:10;;;;;;;3.67;1.27;;;19.80;99.90;;;;;;5043966;28;20175;-77
2021/08/08 11:12:42;;;;;;;1.77;0.80;;;19.70;99.90;;;;;;5045815;28;20162;-78
2021/08/08 11:15:09;;;;;;;2.30;0.97;;;19.70;99.90;;;;;;5044964;28;20182;-78
2021/08/08 11:17:35;;;;;;;2.10;1.03;;;19.70;99.90;;;;;;5044536;28;20221;-79
2021/08/08 11:20:02;;;;;;;3.77;1.40;;;19.80;99.90;;;;;;5044371;28;20211;-78
2021/08/08 11:22:28;;;;;;;4.20;1.10;;;19.80;99.90;;;;;;5045743;28;20253;-80
2021/08/08 11:25:05;;;;;;;2.93;0.90;;;19.80;99.90;;;;;;5045919;28;20641;-78
2021/08/08 11:27:38;;;;;;;6.83;1.77;;;19.70;99.90;;;;;;5048620;28;20198;-79
2021/08/08 11:30:12;;;;;;;3.57;1.60;;;19.70;99.90;;;;;;5046790;28;20181;-78
2021/08/08 11:32:38;;;;;;;1.67;1.10;;;19.80;99.90;;;;;;5048682;28;20173;-78
2021/08/08 11:35:09;;;;;;;2.90;0.70;;;19.70;99.90;;;;;;5046475;28;20270;-79
2021/08/08 11:37:41;;;;;;;3.00;1.50;;;19.70;99.90;;;;;;5045633;28;20743;-78
2021/08/08 11:40:23;;;;;;;2.00;0.83;;;19.80;99.90;;;;;;5048028;28;20200;-78
2021/08/08 11:43:01;;;;;;;2.07;0.80;;;19.90;99.90;;;;;;5047983;28;20182;-78
2021/08/08 11:45:38;;;;;;;1.57;0.60;;;20.00;99.90;;;;;;5046104;28;20204;-78
2021/08/08 11:48:06;;;;;;;2.70;0.90;;;20.00;99.90;;;;;;5044804;28;20189;-78
2021/08/08 11:50:32;;;;;;;2.07;0.90;;;20.20;99.90;;;;;;5045723;28;20217;-77
2021/08/08 11:52:59;;;;;;;3.33;0.70;;;20.40;99.90;;;;;;5046162;28;20242;-78
2021/08/08 11:55:26;;;;;;;2.40;0.70;;;20.40;99.90;;;;;;5044972;28;20230;-78
2021/08/08 11:58:03;;;;;;;3.33;1.07;;;20.50;99.90;;;;;;5045756;28;20209;-79
2021/08/08 12:00:30;;;;;;;2.17;0.80;;;20.80;99.90;;;;;;5045165;28;20280;-79
2021/08/08 12:02:56;;;;;;;1.63;0.70;;;20.90;99.90;;;;;;5045439;28;20182;-79
2021/08/08 12:05:23;;;;;;;2.90;0.80;;;21.00;99.90;;;;;;5044666;28;20221;-78
2021/08/08 12:07:50;;;;;;;2.40;0.90;;;20.90;99.90;;;;;;5044430;28;20261;-79
2021/08/08 12:10:29;;;;;;;1.53;0.90;;;20.70;99.90;;;;;;5044718;28;20173;-78
2021/08/08 12:12:55;;;;;;;1.93;0.60;;;20.90;99.90;;;;;;5043582;28;20170;-78
2021/08/08 12:15:36;;;;;;;2.10;0.93;;;21.20;99.90;;;;;;5045323;28;20192;-78
2021/08/08 12:18:03;;;;;;;1.17;0.77;;;21.20;99.90;;;;;;5043665;28;20205;-78
2021/08/08 12:20:34;;;;;;;2.13;1.00;;;21.00;99.90;;;;;;5047346;28;20183;-79
2021/08/08 12:23:08;;;;;;;3.17;0.83;;;21.00;99.90;;;;;;5049076;28;20179;-78
2021/08/08 12:25:35;;;;;;;2.83;0.87;;;20.90;99.90;;;;;;5049914;28;20194;-79
2021/08/08 12:28:00;;;;;;;3.37;0.80;;;21.00;99.90;;;;;;5049045;28;20258;-79
2021/08/08 12:30:29;;;;;;;1.70;0.80;;;21.10;99.90;;;;;;5048485;28;20182;-78
2021/08/08 12:33:09;;;;;;;1.50;0.70;;;21.20;99.90;;;;;;5048991;28;20170;-79
2021/08/08 12:35:40;;;;;;;1.50;0.80;;;21.00;99.90;;;;;;5049482;28;20182;-78
2021/08/08 12:38:08;;;;;;;2.27;1.03;;;21.00;99.90;;;;;;5049260;28;20237;-79
2021/08/08 12:40:54;;;;;;;1.53;0.70;;;20.90;99.90;;;;;;5049332;28;20171;-78
2021/08/08 12:43:25;;;;;;;1.93;0.70;;;20.90;99.90;;;;;;5048094;28;20179;-78
2021/08/08 12:45:52;;;;;;;1.33;0.70;;;20.90;99.90;;;;;;5048155;28;20202;-78
2021/08/08 12:48:29;;;;;;;1.70;0.70;;;20.90;99.90;;;;;;5047414;28;20673;-78
2021/08/08 12:50:55;;;;;;;1.33;0.50;;;21.00;99.90;;;;;;5048574;28;20189;-79